sensor_id;sensor_type;location;lat;lon;timestamp;pressure;altitude;pressure_sealevel;temperature;humidity
55757;BME280;41676;44.610;44.078;2022-07-29T00:01:26;100254.47;;;18.86;93.25
55757;BME280;41676;44.610;44.078;2022-07-29T00:06:27;100185.03;;;18.40;93.61
55757;BME280;41676;44.610;44.078;2022-07-29T00:11:28;100220.66;;;18.54;94.05
55757;BME280;41676;44.610;44.078;2022-07-29T00:16:29;100280.34;;;18.87;94.25
55757;BME280;41676;44.610;44.078;2022-07-29T00:21:30;100273.41;;;18.80;94.52
55757;BME280;41676;44.610;44.078;2022-07-29T00:26:31;100278.25;;;18.89;95.14
55757;BME280;41676;44.610;44.078;2022-07-29T00:31:32;100280.34;;;18.87;95.15
55757;BME280;41676;44.610;44.078;2022-07-29T00:36:33;100274.59;;;18.84;95.68
55757;BME280;41676;44.610;44.078;2022-07-29T00:41:34;100271.78;;;18.79;95.23
55757;BME280;41676;44.610;44.078;2022-07-29T00:46:35;100281.09;;;18.76;95.26
55757;BME280;41676;44.610;44.078;2022-07-29T00:51:37;100196.25;;;18.12;95.56
55757;BME280;41676;44.610;44.078;2022-07-29T00:56:38;100277.75;;;18.56;95.82
55757;BME280;41676;44.610;44.078;2022-07-29T01:01:39;100284.84;;;18.50;96.41
55757;BME280;41676;44.610;44.078;2022-07-29T01:06:40;100289.47;;;18.43;97.05
55757;BME280;41676;44.610;44.078;2022-07-29T01:11:42;100275.25;;;18.36;97.69
55757;BME280;41676;44.610;44.078;2022-07-29T01:21:53;100213.41;;;17.86;98.64
55757;BME280;41676;44.610;44.078;2022-07-29T01:32:36;100261.81;;;18.11;99.98
55757;BME280;41676;44.610;44.078;2022-07-29T01:38:20;100274.31;;;18.23;100.00
55757;BME280;41676;44.610;44.078;2022-07-29T01:43:36;100275.19;;;18.17;100.00
55757;BME280;41676;44.610;44.078;2022-07-29T01:54:22;100295.34;;;18.33;100.00
55757;BME280;41676;44.610;44.078;2022-07-29T01:59:25;100242.41;;;17.84;98.99
55757;BME280;41676;44.610;44.078;2022-07-29T02:04:28;100306.22;;;18.20;99.53
55757;BME280;41676;44.610;44.078;2022-07-29T02:09:31;100304.34;;;18.20;99.76
55757;BME280;41676;44.610;44.078;2022-07-29T02:14:37;100228.59;;;17.80;99.82
55757;BME280;41676;44.610;44.078;2022-07-29T02:19:39;100294.56;;;18.26;98.97
55757;BME280;41676;44.610;44.078;2022-07-29T02:24:44;100246.34;;;18.06;98.94
55757;BME280;41676;44.610;44.078;2022-07-29T02:29:46;100302.97;;;18.61;98.87
55757;BME280;41676;44.610;44.078;2022-07-29T02:34:48;100318.03;;;18.87;98.12
55757;BME280;41676;44.610;44.078;2022-07-29T02:39:52;100216.53;;;18.51;97.93
55757;BME280;41676;44.610;44.078;2022-07-29T02:44:53;100319.00;;;19.48;96.39
55757;BME280;41676;44.610;44.078;2022-07-29T02:50:04;100308.66;;;19.45;96.71
55757;BME280;41676;44.610;44.078;2022-07-29T02:55:29;100318.66;;;19.75;96.66
55757;BME280;41676;44.610;44.078;2022-07-29T03:00:33;100226.66;;;19.71;94.31
55757;BME280;41676;44.610;44.078;2022-07-29T03:05:37;100285.72;;;20.38;92.46
55757;BME280;41676;44.610;44.078;2022-07-29T03:10:44;100301.09;;;20.26;92.22
55757;BME280;41676;44.610;44.078;2022-07-29T03:15:47;100325.38;;;20.26;92.99
55757;BME280;41676;44.610;44.078;2022-07-29T03:20:47;100298.50;;;20.43;91.75
55757;BME280;41676;44.610;44.078;2022-07-29T03:25:49;100313.97;;;21.87;85.44
55757;BME280;41676;44.610;44.078;2022-07-29T03:30:50;100280.59;;;23.49;78.45
55757;BME280;41676;44.610;44.078;2022-07-29T03:35:51;100301.25;;;25.41;72.11
55757;BME280;41676;44.610;44.078;2022-07-29T03:40:56;100308.72;;;26.69;64.14
55757;BME280;41676;44.610;44.078;2022-07-29T03:45:59;100315.69;;;27.70;61.31
55757;BME280;41676;44.610;44.078;2022-07-29T03:51:01;100312.75;;;29.55;62.22
55757;BME280;41676;44.610;44.078;2022-07-29T03:56:02;100244.66;;;28.92;59.11
55757;BME280;41676;44.610;44.078;2022-07-29T04:01:03;100180.84;;;29.21;56.33
55757;BME280;41676;44.610;44.078;2022-07-29T04:06:06;100318.34;;;30.40;52.55
55757;BME280;41676;44.610;44.078;2022-07-29T04:11:07;100301.06;;;31.00;51.00
55757;BME280;41676;44.610;44.078;2022-07-29T04:16:08;100306.56;;;31.64;49.84
55757;BME280;41676;44.610;44.078;2022-07-29T04:21:09;100297.75;;;31.53;49.22
55757;BME280;41676;44.610;44.078;2022-07-29T04:26:10;100230.41;;;31.19;48.49
55757;BME280;41676;44.610;44.078;2022-07-29T04:31:12;100296.84;;;31.44;48.05
55757;BME280;41676;44.610;44.078;2022-07-29T04:36:13;100290.88;;;31.14;49.02
55757;BME280;41676;44.610;44.078;2022-07-29T04:41:14;100294.56;;;30.82;49.46
55757;BME280;41676;44.610;44.078;2022-07-29T04:46:15;100302.63;;;30.45;49.17
55757;BME280;41676;44.610;44.078;2022-07-29T04:51:16;100228.22;;;29.92;49.46
55757;BME280;41676;44.610;44.078;2022-07-29T04:56:17;100292.25;;;30.29;49.01
55757;BME280;41676;44.610;44.078;2022-07-29T05:01:18;100295.44;;;30.50;48.94
55757;BME280;41676;44.610;44.078;2022-07-29T05:06:19;100281.41;;;30.18;48.76
55757;BME280;41676;44.610;44.078;2022-07-29T05:11:19;100212.22;;;29.61;48.18
55757;BME280;41676;44.610;44.078;2022-07-29T05:16:20;100192.81;;;29.25;49.94
55757;BME280;41676;44.610;44.078;2022-07-29T05:21:21;100280.09;;;29.45;49.76
55757;BME280;41676;44.610;44.078;2022-07-29T05:26:22;100202.97;;;29.00;49.85
55757;BME280;41676;44.610;44.078;2022-07-29T05:31:23;100259.06;;;29.60;50.41
55757;BME280;41676;44.610;44.078;2022-07-29T05:36:23;100186.50;;;29.43;50.19
55757;BME280;41676;44.610;44.078;2022-07-29T05:41:24;100261.19;;;30.00;49.44
55757;BME280;41676;44.610;44.078;2022-07-29T05:46:26;100263.75;;;30.11;49.15
55757;BME280;41676;44.610;44.078;2022-07-29T05:51:26;100258.13;;;30.21;49.87
55757;BME280;41676;44.610;44.078;2022-07-29T05:56:27;100248.41;;;30.29;48.59
55757;BME280;41676;44.610;44.078;2022-07-29T06:01:28;100253.00;;;30.61;47.06
55757;BME280;41676;44.610;44.078;2022-07-29T06:06:29;100221.72;;;30.62;47.11
55757;BME280;41676;44.610;44.078;2022-07-29T06:11:30;100229.72;;;30.72;46.71
55757;BME280;41676;44.610;44.078;2022-07-29T06:16:31;100184.66;;;30.51;46.05
55757;BME280;41676;44.610;44.078;2022-07-29T06:21:32;100241.09;;;31.21;45.77
55757;BME280;41676;44.610;44.078;2022-07-29T06:26:33;100221.56;;;31.22;44.89
55757;BME280;41676;44.610;44.078;2022-07-29T06:31:34;100203.84;;;31.28;44.18
55757;BME280;41676;44.610;44.078;2022-07-29T06:36:36;100195.50;;;31.33;43.07
55757;BME280;41676;44.610;44.078;2022-07-29T06:41:37;100237.81;;;31.69;42.63
55757;BME280;41676;44.610;44.078;2022-07-29T06:46:38;100161.59;;;31.29;41.80
55757;BME280;41676;44.610;44.078;2022-07-29T06:51:39;100154.16;;;31.52;42.41
55757;BME280;41676;44.610;44.078;2022-07-29T06:56:39;100241.06;;;31.93;41.80
55757;BME280;41676;44.610;44.078;2022-07-29T07:01:43;100161.31;;;31.53;40.73
55757;BME280;41676;44.610;44.078;2022-07-29T07:06:44;100148.97;;;31.73;40.22
55757;BME280;41676;44.610;44.078;2022-07-29T07:11:45;100215.06;;;32.22;39.28
55757;BME280;41676;44.610;44.078;2022-07-29T07:16:45;100217.75;;;32.44;39.02
55757;BME280;41676;44.610;44.078;2022-07-29T07:21:46;100199.06;;;32.33;38.90
55757;BME280;41676;44.610;44.078;2022-07-29T07:26:47;100146.66;;;32.20;38.70
55757;BME280;41676;44.610;44.078;2022-07-29T07:31:48;100197.16;;;32.90;39.49
55757;BME280;41676;44.610;44.078;2022-07-29T07:36:49;100196.25;;;33.12;38.56
55757;BME280;41676;44.610;44.078;2022-07-29T07:41:49;100188.47;;;33.23;37.70
55757;BME280;41676;44.610;44.078;2022-07-29T07:46:50;100161.78;;;33.24;37.92
55757;BME280;41676;44.610;44.078;2022-07-29T07:51:51;100190.59;;;33.52;37.72
55757;BME280;41676;44.610;44.078;2022-07-29T07:56:52;100160.63;;;33.33;37.26
55757;BME280;41676;44.610;44.078;2022-07-29T08:01:53;100162.88;;;33.23;37.03
55757;BME280;41676;44.610;44.078;2022-07-29T08:06:55;100173.41;;;33.38;37.02
55757;BME280;41676;44.610;44.078;2022-07-29T08:11:56;100170.78;;;33.50;36.92
55757;BME280;41676;44.610;44.078;2022-07-29T08:16:59;100172.75;;;33.58;36.77
55757;BME280;41676;44.610;44.078;2022-07-29T08:21:59;100155.72;;;33.65;35.88
55757;BME280;41676;44.610;44.078;2022-07-29T08:27:00;100104.25;;;33.48;35.80
55757;BME280;41676;44.610;44.078;2022-07-29T08:32:02;100167.88;;;33.73;34.93
55757;BME280;41676;44.610;44.078;2022-07-29T08:37:02;100146.03;;;33.59;35.10
55757;BME280;41676;44.610;44.078;2022-07-29T08:42:03;100079.78;;;33.38;35.50
55757;BME280;41676;44.610;44.078;2022-07-29T08:47:05;100118.69;;;33.92;34.80
55757;BME280;41676;44.610;44.078;2022-07-29T08:52:06;100118.66;;;34.09;34.19
55757;BME280;41676;44.610;44.078;2022-07-29T08:57:12;100149.03;;;34.69;34.74
55757;BME280;41676;44.610;44.078;2022-07-29T09:02:22;100150.78;;;34.73;33.55
55757;BME280;41676;44.610;44.078;2022-07-29T09:07:23;100062.28;;;34.28;34.45
55757;BME280;41676;44.610;44.078;2022-07-29T09:12:24;100121.28;;;34.65;33.65
55757;BME280;41676;44.610;44.078;2022-07-29T09:17:43;100119.34;;;34.36;33.95
55757;BME280;41676;44.610;44.078;2022-07-29T09:22:45;100131.47;;;34.44;34.46
55757;BME280;41676;44.610;44.078;2022-07-29T09:27:50;100114.75;;;34.70;33.76
55757;BME280;41676;44.610;44.078;2022-07-29T09:32:57;100106.16;;;34.71;32.93
55757;BME280;41676;44.610;44.078;2022-07-29T09:38:10;100110.97;;;35.04;34.12
55757;BME280;41676;44.610;44.078;2022-07-29T09:43:12;100107.75;;;34.93;32.39
55757;BME280;41676;44.610;44.078;2022-07-29T09:48:18;100106.63;;;34.94;32.46
55757;BME280;41676;44.610;44.078;2022-07-29T09:53:36;100063.56;;;34.60;32.41
55757;BME280;41676;44.610;44.078;2022-07-29T09:58:37;100092.69;;;34.40;32.84
55757;BME280;41676;44.610;44.078;2022-07-29T10:03:51;100097.63;;;34.85;32.63
55757;BME280;41676;44.610;44.078;2022-07-29T10:08:53;100089.47;;;35.10;31.92
55757;BME280;41676;44.610;44.078;2022-07-29T10:13:54;100089.25;;;35.15;31.62
55757;BME280;41676;44.610;44.078;2022-07-29T10:18:55;100076.00;;;35.54;31.32
55757;BME280;41676;44.610;44.078;2022-07-29T10:23:57;100090.34;;;35.68;31.24
55757;BME280;41676;44.610;44.078;2022-07-29T10:29:00;100102.78;;;35.74;31.80
55757;BME280;41676;44.610;44.078;2022-07-29T10:34:06;100093.41;;;35.21;32.39
55757;BME280;41676;44.610;44.078;2022-07-29T10:44:27;100058.56;;;34.53;32.56
55757;BME280;41676;44.610;44.078;2022-07-29T10:49:28;100066.84;;;34.95;31.83
55757;BME280;41676;44.610;44.078;2022-07-29T10:54:47;100055.88;;;35.08;32.33
55757;BME280;41676;44.610;44.078;2022-07-29T10:59:50;100052.91;;;35.13;31.07
55757;BME280;41676;44.610;44.078;2022-07-29T11:15:17;100064.09;;;35.62;30.24
55757;BME280;41676;44.610;44.078;2022-07-29T11:20:44;100061.09;;;35.67;29.46
55757;BME280;41676;44.610;44.078;2022-07-29T11:31:13;100056.25;;;35.18;28.80
55757;BME280;41676;44.610;44.078;2022-07-29T11:36:15;99972.13;;;34.70;28.53
55757;BME280;41676;44.610;44.078;2022-07-29T11:41:24;100046.72;;;35.28;28.54
55757;BME280;41676;44.610;44.078;2022-07-29T11:46:49;100055.28;;;35.48;28.51
55757;BME280;41676;44.610;44.078;2022-07-29T11:51:57;100040.88;;;35.42;28.84
55757;BME280;41676;44.610;44.078;2022-07-29T11:56:58;100030.19;;;35.40;28.63
55757;BME280;41676;44.610;44.078;2022-07-29T12:01:59;100015.59;;;35.52;28.48
55757;BME280;41676;44.610;44.078;2022-07-29T12:07:00;100000.47;;;35.25;28.35
55757;BME280;41676;44.610;44.078;2022-07-29T12:12:01;100005.53;;;35.23;27.41
55757;BME280;41676;44.610;44.078;2022-07-29T12:17:02;100000.34;;;35.21;27.94
55757;BME280;41676;44.610;44.078;2022-07-29T12:22:03;100013.41;;;35.46;28.28
55757;BME280;41676;44.610;44.078;2022-07-29T12:27:04;99999.50;;;35.54;28.53
55757;BME280;41676;44.610;44.078;2022-07-29T12:32:05;100001.41;;;35.54;27.57
55757;BME280;41676;44.610;44.078;2022-07-29T12:37:08;100002.09;;;35.51;27.46
55757;BME280;41676;44.610;44.078;2022-07-29T12:42:12;99976.13;;;35.52;26.75
55757;BME280;41676;44.610;44.078;2022-07-29T12:47:14;100000.22;;;35.63;27.36
55757;BME280;41676;44.610;44.078;2022-07-29T12:52:24;100004.34;;;35.57;25.72
55757;BME280;41676;44.610;44.078;2022-07-29T12:57:26;99985.97;;;35.16;27.78
55757;BME280;41676;44.610;44.078;2022-07-29T13:02:27;99996.56;;;35.26;27.17
55757;BME280;41676;44.610;44.078;2022-07-29T13:07:32;100000.50;;;35.37;26.73
55757;BME280;41676;44.610;44.078;2022-07-29T13:12:36;99974.44;;;35.14;26.54
55757;BME280;41676;44.610;44.078;2022-07-29T13:17:41;100006.47;;;35.27;26.10
55757;BME280;41676;44.610;44.078;2022-07-29T13:22:47;99998.59;;;35.17;26.95
55757;BME280;41676;44.610;44.078;2022-07-29T13:27:48;99988.28;;;35.26;26.81
55757;BME280;41676;44.610;44.078;2022-07-29T13:32:51;99967.22;;;35.09;26.65
55757;BME280;41676;44.610;44.078;2022-07-29T13:37:52;99994.97;;;35.50;26.32
55757;BME280;41676;44.610;44.078;2022-07-29T13:42:53;99859.47;;;34.39;27.61
55757;BME280;41676;44.610;44.078;2022-07-29T13:47:54;99954.72;;;35.03;26.97
55757;BME280;41676;44.610;44.078;2022-07-29T13:52:55;99991.13;;;35.17;27.12
55757;BME280;41676;44.610;44.078;2022-07-29T13:57:55;99970.44;;;34.90;27.03
55757;BME280;41676;44.610;44.078;2022-07-29T14:02:56;99959.50;;;34.82;27.20
55757;BME280;41676;44.610;44.078;2022-07-29T14:07:57;99971.72;;;34.93;26.97
55757;BME280;41676;44.610;44.078;2022-07-29T14:12:58;99896.59;;;34.42;26.97
55757;BME280;41676;44.610;44.078;2022-07-29T14:18:01;99886.66;;;34.28;27.40
55757;BME280;41676;44.610;44.078;2022-07-29T14:23:02;99945.47;;;34.53;27.45
55757;BME280;41676;44.610;44.078;2022-07-29T14:28:03;99956.50;;;34.53;27.37
55757;BME280;41676;44.610;44.078;2022-07-29T14:33:04;99877.94;;;34.05;27.30
55757;BME280;41676;44.610;44.078;2022-07-29T14:38:05;99965.94;;;34.52;27.66
55757;BME280;41676;44.610;44.078;2022-07-29T14:43:06;99962.91;;;34.45;27.74
55757;BME280;41676;44.610;44.078;2022-07-29T14:48:07;99949.66;;;34.39;27.62
55757;BME280;41676;44.610;44.078;2022-07-29T14:53:07;99823.34;;;33.57;27.88
55757;BME280;41676;44.610;44.078;2022-07-29T14:58:08;99972.50;;;34.39;28.55
55757;BME280;41676;44.610;44.078;2022-07-29T15:03:09;99960.28;;;34.28;28.91
55757;BME280;41676;44.610;44.078;2022-07-29T15:08:10;99919.19;;;33.93;28.84
55757;BME280;41676;44.610;44.078;2022-07-29T15:13:11;99840.47;;;33.33;28.97
55757;BME280;41676;44.610;44.078;2022-07-29T15:18:12;99927.88;;;33.74;29.51
55757;BME280;41676;44.610;44.078;2022-07-29T15:23:13;99963.00;;;33.77;29.59
55757;BME280;41676;44.610;44.078;2022-07-29T15:28:14;99967.09;;;33.71;30.24
55757;BME280;41676;44.610;44.078;2022-07-29T15:33:15;99968.34;;;33.53;30.64
55757;BME280;41676;44.610;44.078;2022-07-29T15:38:16;99963.34;;;33.37;30.97
55757;BME280;41676;44.610;44.078;2022-07-29T15:43:17;99974.63;;;33.15;31.15
55757;BME280;41676;44.610;44.078;2022-07-29T15:48:18;99977.06;;;32.90;31.81
55757;BME280;41676;44.610;44.078;2022-07-29T15:53:19;99989.56;;;32.70;32.32
55757;BME280;41676;44.610;44.078;2022-07-29T15:58:19;99974.47;;;32.33;33.11
55757;BME280;41676;44.610;44.078;2022-07-29T16:03:21;99985.94;;;32.09;33.50
55757;BME280;41676;44.610;44.078;2022-07-29T16:08:22;99856.06;;;31.03;34.49
55757;BME280;41676;44.610;44.078;2022-07-29T16:13:23;99993.63;;;31.41;35.91
55757;BME280;41676;44.610;44.078;2022-07-29T16:18:24;99980.75;;;30.97;37.20
55757;BME280;41676;44.610;44.078;2022-07-29T16:23:24;100009.16;;;30.78;37.92
55757;BME280;41676;44.610;44.078;2022-07-29T16:28:25;100004.00;;;30.40;39.19
55757;BME280;41676;44.610;44.078;2022-07-29T16:33:26;100008.47;;;30.09;39.55
55757;BME280;41676;44.610;44.078;2022-07-29T16:38:27;99997.56;;;29.81;40.69
55757;BME280;41676;44.610;44.078;2022-07-29T16:43:28;99945.41;;;29.31;40.49
55757;BME280;41676;44.610;44.078;2022-07-29T16:48:29;100015.41;;;29.65;40.38
55757;BME280;41676;44.610;44.078;2022-07-29T16:53:30;100008.53;;;29.34;40.17
55757;BME280;41676;44.610;44.078;2022-07-29T16:58:31;99939.00;;;28.75;40.04
55757;BME280;41676;44.610;44.078;2022-07-29T17:03:32;100031.53;;;29.20;40.16
55757;BME280;41676;44.610;44.078;2022-07-29T17:08:33;100041.38;;;29.02;40.99
55757;BME280;41676;44.610;44.078;2022-07-29T17:13:34;100044.09;;;28.83;41.80
55757;BME280;41676;44.610;44.078;2022-07-29T17:18:35;100040.78;;;28.48;43.10
55757;BME280;41676;44.610;44.078;2022-07-29T17:23:35;100052.31;;;28.21;45.25
55757;BME280;41676;44.610;44.078;2022-07-29T17:28:36;100060.59;;;27.92;45.70
55757;BME280;41676;44.610;44.078;2022-07-29T17:33:37;100054.91;;;27.59;48.06
55757;BME280;41676;44.610;44.078;2022-07-29T17:38:38;100039.47;;;27.15;48.73
55757;BME280;41676;44.610;44.078;2022-07-29T17:43:39;100068.41;;;27.06;49.77
55757;BME280;41676;44.610;44.078;2022-07-29T17:48:41;99986.63;;;26.27;51.07
55757;BME280;41676;44.610;44.078;2022-07-29T17:53:41;100048.88;;;26.49;52.09
55757;BME280;41676;44.610;44.078;2022-07-29T17:58:43;100061.47;;;26.35;52.75
55757;BME280;41676;44.610;44.078;2022-07-29T18:03:44;100067.03;;;26.04;53.16
55757;BME280;41676;44.610;44.078;2022-07-29T18:08:44;100077.41;;;25.97;53.63
55757;BME280;41676;44.610;44.078;2022-07-29T18:13:49;99998.91;;;25.24;55.11
55757;BME280;41676;44.610;44.078;2022-07-29T18:18:50;100080.44;;;25.55;54.86
55757;BME280;41676;44.610;44.078;2022-07-29T18:23:50;99981.22;;;24.80;55.98
55757;BME280;41676;44.610;44.078;2022-07-29T18:28:52;99988.00;;;24.78;57.33
55757;BME280;41676;44.610;44.078;2022-07-29T18:33:52;100086.97;;;25.23;58.49
55757;BME280;41676;44.610;44.078;2022-07-29T18:38:53;100004.25;;;24.52;59.31
55757;BME280;41676;44.610;44.078;2022-07-29T18:43:54;100077.13;;;24.91;59.70
55757;BME280;41676;44.610;44.078;2022-07-29T18:48:55;100074.66;;;24.79;58.67
55757;BME280;41676;44.610;44.078;2022-07-29T18:53:56;100070.31;;;24.73;58.94
55757;BME280;41676;44.610;44.078;2022-07-29T18:58:57;100043.41;;;24.56;59.90
55757;BME280;41676;44.610;44.078;2022-07-29T19:03:58;100078.69;;;24.56;61.37
55757;BME280;41676;44.610;44.078;2022-07-29T19:08:59;100066.72;;;24.47;62.17
55757;BME280;41676;44.610;44.078;2022-07-29T19:14:00;100038.38;;;24.28;61.78
55757;BME280;41676;44.610;44.078;2022-07-29T19:19:01;100064.22;;;24.35;62.38
55757;BME280;41676;44.610;44.078;2022-07-29T19:24:02;99905.22;;;23.24;63.36
55757;BME280;41676;44.610;44.078;2022-07-29T19:29:04;100039.63;;;24.05;62.85
55757;BME280;41676;44.610;44.078;2022-07-29T19:34:07;100066.53;;;24.06;63.01
55757;BME280;41676;44.610;44.078;2022-07-29T19:39:08;100060.13;;;23.80;63.92
55757;BME280;41676;44.610;44.078;2022-07-29T19:44:09;99943.81;;;22.99;64.91
55757;BME280;41676;44.610;44.078;2022-07-29T19:49:10;100063.00;;;23.63;65.78
55757;BME280;41676;44.610;44.078;2022-07-29T19:54:13;99974.53;;;23.10;66.82
55757;BME280;41676;44.610;44.078;2022-07-29T19:59:15;99881.50;;;22.29;67.02
55757;BME280;41676;44.610;44.078;2022-07-29T20:04:16;100035.47;;;23.07;67.91
55757;BME280;41676;44.610;44.078;2022-07-29T20:09:17;100047.47;;;23.16;66.81
55757;BME280;41676;44.610;44.078;2022-07-29T20:14:17;99987.22;;;22.77;66.71
55757;BME280;41676;44.610;44.078;2022-07-29T20:19:18;99980.91;;;22.66;66.75
55757;BME280;41676;44.610;44.078;2022-07-29T20:24:20;100022.81;;;22.91;67.15
55757;BME280;41676;44.610;44.078;2022-07-29T20:29:21;100042.00;;;22.84;67.71
55757;BME280;41676;44.610;44.078;2022-07-29T20:34:22;100055.47;;;22.79;68.89
55757;BME280;41676;44.610;44.078;2022-07-29T20:39:23;100036.88;;;22.61;68.96
55757;BME280;41676;44.610;44.078;2022-07-29T20:44:23;100052.38;;;22.65;69.95
55757;BME280;41676;44.610;44.078;2022-07-29T20:49:24;100037.16;;;22.59;70.51
55757;BME280;41676;44.610;44.078;2022-07-29T20:54:25;100046.38;;;22.63;71.49
55757;BME280;41676;44.610;44.078;2022-07-29T20:59:26;100012.66;;;22.49;71.12
55757;BME280;41676;44.610;44.078;2022-07-29T21:04:27;100042.59;;;22.64;71.70
55757;BME280;41676;44.610;44.078;2022-07-29T21:09:28;100038.81;;;22.38;72.13
55757;BME280;41676;44.610;44.078;2022-07-29T21:14:30;100006.41;;;21.99;73.16
55757;BME280;41676;44.610;44.078;2022-07-29T21:19:48;99974.41;;;21.74;73.39
55757;BME280;41676;44.610;44.078;2022-07-29T21:24:51;99991.03;;;21.61;73.83
55757;BME280;41676;44.610;44.078;2022-07-29T21:29:52;99895.97;;;20.91;74.20
55757;BME280;41676;44.610;44.078;2022-07-29T21:34:53;100013.78;;;21.65;74.67
55757;BME280;41676;44.610;44.078;2022-07-29T21:39:54;100029.56;;;21.73;74.94
55757;BME280;41676;44.610;44.078;2022-07-29T21:44:55;100022.66;;;21.60;75.25
55757;BME280;41676;44.610;44.078;2022-07-29T21:49:57;99958.31;;;21.07;76.27
55757;BME280;41676;44.610;44.078;2022-07-29T21:54:58;100020.53;;;21.46;75.83
55757;BME280;41676;44.610;44.078;2022-07-29T21:59:59;99955.13;;;21.10;75.59
55757;BME280;41676;44.610;44.078;2022-07-29T22:05:00;100026.56;;;21.53;75.88
55757;BME280;41676;44.610;44.078;2022-07-29T22:10:01;99932.63;;;20.87;76.40
55757;BME280;41676;44.610;44.078;2022-07-29T22:15:03;100026.13;;;21.39;77.69
55757;BME280;41676;44.610;44.078;2022-07-29T22:20:04;99981.78;;;21.23;76.87
55757;BME280;41676;44.610;44.078;2022-07-29T22:25:06;100002.84;;;21.38;76.97
55757;BME280;41676;44.610;44.078;2022-07-29T22:30:08;100031.84;;;21.42;77.19
55757;BME280;41676;44.610;44.078;2022-07-29T22:35:09;100033.38;;;21.38;77.54
55757;BME280;41676;44.610;44.078;2022-07-29T22:40:10;100023.78;;;21.31;77.33
55757;BME280;41676;44.610;44.078;2022-07-29T22:45:11;99949.97;;;20.91;77.17
55757;BME280;41676;44.610;44.078;2022-07-29T22:50:12;100015.91;;;21.29;77.37
55757;BME280;41676;44.610;44.078;2022-07-29T22:55:13;100016.84;;;21.18;77.88
55757;BME280;41676;44.610;44.078;2022-07-29T23:00:14;99928.13;;;20.59;78.07
55757;BME280;41676;44.610;44.078;2022-07-29T23:05:15;99994.22;;;20.90;78.47
55757;BME280;41676;44.610;44.078;2022-07-29T23:10:16;99938.84;;;20.42;78.68
55757;BME280;41676;44.610;44.078;2022-07-29T23:15:17;99981.34;;;20.64;79.00
55757;BME280;41676;44.610;44.078;2022-07-29T23:20:18;99998.22;;;20.71;79.74
55757;BME280;41676;44.610;44.078;2022-07-29T23:25:19;99919.59;;;20.22;80.05
55757;BME280;41676;44.610;44.078;2022-07-29T23:30:20;99988.25;;;20.71;79.47
55757;BME280;41676;44.610;44.078;2022-07-29T23:35:21;99983.16;;;20.58;79.72
55757;BME280;41676;44.610;44.078;2022-07-29T23:40:22;100010.16;;;20.75;79.81
55757;BME280;41676;44.610;44.078;2022-07-29T23:45:23;100019.06;;;20.75;80.03
55757;BME280;41676;44.610;44.078;2022-07-29T23:50:24;100001.47;;;20.73;79.67
55757;BME280;41676;44.610;44.078;2022-07-29T23:55:25;100002.63;;;20.60;80.21
